Time;durP1;ratioP1;P1;durP2;ratioP2;P2;SDS_P1;SDS_P2;PMS_P1;PMS_P2;Temp;Humidity;BMP_temperature;BMP_pressure;BME280_temperature;BME280_humidity;BME280_pressure;Samples;Min_cycle;Max_cycle;Signal;HPM_P1;HPM_P2
2021/04/03 00:00:42;;;;;;;8.40;6.28;;;3.80;96.60;;;;;;5055856;28;20029;-80
2021/04/03 00:03:11;;;;;;;8.90;5.93;;;3.80;96.60;;;;;;5055764;28;20013;-80
2021/04/03 00:05:37;;;;;;;5.60;4.90;;;3.80;96.70;;;;;;5054285;28;20383;-79
2021/04/03 00:08:04;;;;;;;7.50;5.47;;;3.80;96.60;;;;;;5054936;28;20074;-80
2021/04/03 00:10:45;;;;;;;8.15;6.20;;;3.80;96.60;;;;;;5055650;28;20036;-80
2021/04/03 00:13:12;;;;;;;7.85;5.43;;;3.70;96.70;;;;;;5054479;28;20383;-80
2021/04/03 00:15:38;;;;;;;6.63;5.32;;;3.70;96.50;;;;;;5055306;28;20029;-79
2021/04/03 00:18:04;;;;;;;8.80;6.38;;;3.70;96.40;;;;;;5054226;28;20023;-79
2021/04/03 00:20:32;;;;;;;6.90;5.55;;;3.70;96.40;;;;;;5054316;28;20029;-79
2021/04/03 00:22:58;;;;;;;7.35;5.38;;;3.70;96.70;;;;;;5053526;28;20017;-79
2021/04/03 00:25:24;;;;;;;8.25;6.00;;;3.70;96.60;;;;;;5054830;28;20475;-80
2021/04/03 00:27:50;;;;;;;9.85;6.22;;;3.60;96.50;;;;;;5053498;28;20021;-79
2021/04/03 00:30:17;;;;;;;7.32;5.45;;;3.60;96.70;;;;;;5055179;28;20065;-79
2021/04/03 00:32:47;;;;;;;7.60;5.78;;;3.60;96.70;;;;;;5054071;28;20036;-78
2021/04/03 00:35:15;;;;;;;7.97;5.93;;;3.50;96.70;;;;;;5053917;28;20429;-77
2021/04/03 00:37:41;;;;;;;7.85;5.85;;;3.50;96.70;;;;;;5053902;28;20470;-77
2021/04/03 00:40:14;;;;;;;7.72;5.90;;;3.50;96.60;;;;;;5053887;28;20029;-79
2021/04/03 00:42:41;;;;;;;8.82;6.15;;;3.50;96.60;;;;;;5053818;28;20024;-79
2021/04/03 00:45:08;;;;;;;9.23;6.63;;;3.40;96.70;;;;;;5053862;28;20025;-79
2021/04/03 00:47:33;;;;;;;9.00;6.15;;;3.50;96.80;;;;;;5053720;28;20025;-79
2021/04/03 00:49:59;;;;;;;9.90;6.20;;;3.40;96.70;;;;;;5053535;28;20082;-78
2021/04/03 00:52:25;;;;;;;8.35;6.30;;;3.40;96.60;;;;;;5053582;28;20032;-79
2021/04/03 00:54:51;;;;;;;9.63;7.10;;;3.40;96.70;;;;;;5054747;28;20344;-79
2021/04/03 00:57:18;;;;;;;9.43;7.18;;;3.40;96.70;;;;;;5053361;28;20115;-79
2021/04/03 00:59:44;;;;;;;9.65;6.57;;;3.40;96.80;;;;;;5053518;28;20479;-79
2021/04/03 01:02:10;;;;;;;8.52;6.57;;;3.40;96.80;;;;;;5053443;28;20417;-79
2021/04/03 01:04:37;;;;;;;7.80;5.63;;;3.40;96.60;;;;;;5054417;28;20167;-79
2021/04/03 01:07:03;;;;;;;8.85;6.30;;;3.50;96.50;;;;;;5054500;28;20501;-79
2021/04/03 01:09:33;;;;;;;10.73;7.88;;;3.50;96.50;;;;;;5052499;28;20028;-79
2021/04/03 01:12:13;;;;;;;9.32;6.85;;;3.50;96.60;;;;;;5054579;28;20029;-79
2021/04/03 01:14:54;;;;;;;8.35;6.05;;;3.50;96.40;;;;;;5053171;28;20112;-79
2021/04/03 01:17:50;;;;;;;9.25;6.70;;;3.50;96.50;;;;;;5050550;28;20383;-79
2021/04/03 01:20:42;;;;;;;10.38;6.60;;;3.50;96.60;;;;;;5049098;28;20033;-77
2021/04/03 01:23:34;;;;;;;7.00;5.82;;;3.40;96.60;;;;;;5053338;28;20423;-78
2021/04/03 01:26:18;;;;;;;7.85;5.75;;;3.40;96.70;;;;;;5045034;28;20033;-78
2021/04/03 01:29:15;;;;;;;5.75;4.78;;;3.40;96.60;;;;;;5052595;28;20021;-81
2021/04/03 01:31:43;;;;;;;8.68;5.50;;;3.40;96.60;;;;;;5053822;28;20058;-78
2021/04/03 01:34:19;;;;;;;8.77;5.80;;;3.40;96.60;;;;;;5054020;28;20029;-79
2021/04/03 01:36:47;;;;;;;6.63;5.22;;;3.30;96.70;;;;;;5053983;28;20021;-79
2021/04/03 01:39:16;;;;;;;7.15;5.47;;;3.40;96.60;;;;;;5053068;28;20459;-79
2021/04/03 01:41:48;;;;;;;6.75;5.03;;;3.40;96.60;;;;;;5052480;28;20032;-78
2021/04/03 01:44:52;;;;;;;6.45;5.18;;;3.40;96.50;;;;;;5053810;28;20056;-77
2021/04/03 01:47:24;;;;;;;9.07;5.38;;;3.50;96.50;;;;;;5046924;28;20120;-77
2021/04/03 01:49:53;;;;;;;7.25;5.50;;;3.50;96.40;;;;;;5053719;28;20103;-78
2021/04/03 01:52:29;;;;;;;10.68;6.65;;;3.50;96.40;;;;;;5052188;28;20047;-78
2021/04/03 01:54:56;;;;;;;8.23;5.68;;;3.50;96.40;;;;;;5052321;28;20048;-77
2021/04/03 01:57:28;;;;;;;8.43;5.70;;;3.50;96.40;;;;;;5052158;28;20025;-77
2021/04/03 01:59:54;;;;;;;9.55;5.93;;;3.60;96.40;;;;;;5052726;28;20071;-78
2021/04/03 02:02:21;;;;;;;9.27;6.28;;;3.60;96.30;;;;;;5052242;28;20031;-78
2021/04/03 02:04:47;;;;;;;7.70;5.45;;;3.60;96.30;;;;;;5052240;28;20025;-77
2021/04/03 02:07:23;;;;;;;8.10;5.88;;;3.60;96.30;;;;;;5052033;28;20031;-77
2021/04/03 02:09:52;;;;;;;8.95;5.82;;;3.60;96.40;;;;;;5053518;28;20025;-79
2021/04/03 02:12:19;;;;;;;7.82;5.65;;;3.70;96.30;;;;;;5052080;28;20021;-79
2021/04/03 02:14:48;;;;;;;8.35;6.10;;;3.70;96.10;;;;;;5053363;28;20536;-79
2021/04/03 02:17:16;;;;;;;8.07;6.20;;;3.70;96.20;;;;;;5053268;28;20791;-78
2021/04/03 02:19:43;;;;;;;7.70;5.40;;;3.70;96.20;;;;;;5052384;28;20083;-78
2021/04/03 02:22:09;;;;;;;9.63;6.47;;;3.70;96.20;;;;;;5052176;28;20020;-78
2021/04/03 02:24:36;;;;;;;7.25;6.07;;;3.70;96.30;;;;;;5052120;28;20025;-78
2021/04/03 02:27:02;;;;;;;8.35;5.95;;;3.70;96.10;;;;;;5052092;28;20029;-78
2021/04/03 02:29:27;;;;;;;7.72;6.25;;;3.70;96.00;;;;;;5052314;28;20122;-77
2021/04/03 02:31:53;;;;;;;8.63;5.78;;;3.70;96.00;;;;;;5051941;28;20060;-78
2021/04/03 02:34:19;;;;;;;8.45;5.80;;;3.70;95.90;;;;;;5051800;28;20059;-79
2021/04/03 02:36:44;;;;;;;9.38;7.15;;;3.70;96.00;;;;;;5051962;28;20550;-78
2021/04/03 02:39:11;;;;;;;8.60;6.43;;;3.60;96.10;;;;;;5053244;28;20021;-77
2021/04/03 02:41:44;;;;;;;10.15;7.00;;;3.60;96.30;;;;;;5051949;28;20021;-78
2021/04/03 02:44:14;;;;;;;9.80;6.70;;;3.60;96.00;;;;;;5051821;28;20056;-78
2021/04/03 02:46:55;;;;;;;9.65;7.40;;;3.60;96.10;;;;;;5051941;28;20029;-78
2021/04/03 02:49:24;;;;;;;;;;;3.50;96.30;;;;;;5052359;28;20471;-78
2021/04/03 02:51:54;;;;;;;12.30;8.35;;;3.50;96.30;;;;;;5051816;28;19996;-78
2021/04/03 02:54:22;;;;;;;11.60;7.63;;;3.50;96.40;;;;;;5052862;28;20049;-79
2021/04/03 02:56:49;;;;;;;10.45;7.63;;;3.50;96.40;;;;;;5051785;28;20257;-78
2021/04/03 02:59:22;;;;;;;10.70;7.68;;;3.50;96.50;;;;;;5053002;28;20051;-79
2021/04/03 03:01:51;;;;;;;10.75;6.93;;;3.50;96.40;;;;;;5051905;28;20021;-78
2021/04/03 03:04:31;;;;;;;9.98;8.15;;;3.50;96.40;;;;;;5051724;28;20116;-78
2021/04/03 03:06:58;;;;;;;8.88;6.95;;;3.50;96.50;;;;;;5051697;28;20087;-78
2021/04/03 03:09:26;;;;;;;10.07;7.55;;;3.60;96.40;;;;;;5051701;28;20124;-78
2021/04/03 03:11:55;;;;;;;9.10;6.72;;;3.60;96.40;;;;;;5052862;28;20025;-78
2021/04/03 03:14:25;;;;;;;9.25;6.38;;;3.60;96.30;;;;;;5051397;28;20033;-78
2021/04/03 03:16:52;;;;;;;9.60;7.35;;;3.70;96.20;;;;;;5051492;28;20464;-78
2021/04/03 03:19:19;;;;;;;10.63;7.07;;;3.70;96.20;;;;;;5052667;28;20103;-78
2021/04/03 03:21:46;;;;;;;9.23;6.63;;;3.70;96.20;;;;;;5051596;28;20097;-78
2021/04/03 03:24:12;;;;;;;9.82;7.65;;;3.60;96.10;;;;;;5053198;28;20082;-78
2021/04/03 03:26:39;;;;;;;10.15;7.13;;;3.60;96.20;;;;;;5051368;28;20162;-78
2021/04/03 03:29:07;;;;;;;12.52;7.95;;;3.60;96.10;;;;;;5053217;28;20493;-78
2021/04/03 03:31:33;;;;;;;9.40;7.20;;;3.60;96.10;;;;;;5053476;28;20045;-79
2021/04/03 03:34:00;;;;;;;10.35;7.28;;;3.60;96.10;;;;;;5054738;28;20040;-79
2021/04/03 03:36:27;;;;;;;11.43;7.80;;;3.50;96.10;;;;;;5055086;28;20031;-79
2021/04/03 03:38:54;;;;;;;9.60;7.93;;;3.50;96.10;;;;;;5056556;28;20029;-78
2021/04/03 03:41:22;;;;;;;13.27;10.00;;;3.50;96.10;;;;;;5055256;28;20021;-78
2021/04/03 03:43:48;;;;;;;14.82;10.25;;;3.40;96.10;;;;;;5056072;28;20105;-78
2021/04/03 03:46:14;;;;;;;12.93;9.43;;;3.40;96.00;;;;;;5055044;28;20056;-78
2021/04/03 03:48:39;;;;;;;15.55;11.90;;;3.40;96.00;;;;;;5056338;28;20066;-79
2021/04/03 03:51:05;;;;;;;16.65;11.77;;;3.40;96.50;;;;;;5056475;28;20036;-80
2021/04/03 03:53:31;;;;;;;16.33;10.98;;;3.30;96.00;;;;;;5054709;28;20028;-78
2021/04/03 03:55:57;;;;;;;15.55;11.43;;;3.30;96.00;;;;;;5055912;28;20036;-78
2021/04/03 03:58:23;;;;;;;16.60;11.60;;;3.30;96.00;;;;;;5055945;28;20017;-79
2021/04/03 04:00:49;;;;;;;15.32;10.75;;;3.30;96.00;;;;;;5054943;28;20074;-78
2021/04/03 04:03:15;;;;;;;15.20;11.32;;;3.40;96.00;;;;;;5054676;28;20452;-78
2021/04/03 04:05:41;;;;;;;22.58;16.45;;;3.30;96.00;;;;;;5054544;28;20031;-78
2021/04/03 04:08:07;;;;;;;21.08;14.75;;;3.30;96.10;;;;;;5054628;28;20032;-78
2021/04/03 04:10:34;;;;;;;21.08;13.98;;;3.20;96.40;;;;;;5056000;28;20374;-78
2021/04/03 04:13:01;;;;;;;17.73;13.00;;;3.30;96.30;;;;;;5055664;28;20040;-78
2021/04/03 04:15:27;;;;;;;18.42;12.95;;;3.30;96.30;;;;;;5054694;28;20110;-78
2021/04/03 04:17:53;;;;;;;16.60;11.68;;;3.30;96.30;;;;;;5054358;28;20044;-78
2021/04/03 04:20:18;;;;;;;31.10;19.50;;;3.30;96.30;;;;;;5054299;28;20206;-78
2021/04/03 04:22:44;;;;;;;20.17;13.85;;;3.30;96.60;;;;;;5054363;28;20075;-78
2021/04/03 04:25:11;;;;;;;18.83;12.35;;;3.40;96.50;;;;;;5054383;28;20379;-78
2021/04/03 04:27:37;;;;;;;18.80;12.77;;;3.40;96.50;;;;;;5054024;28;20036;-78
2021/04/03 04:30:11;;;;;;;20.00;13.27;;;3.60;96.50;;;;;;5053911;28;20029;-79
2021/04/03 04:32:41;;;;;;;23.45;14.50;;;3.60;96.60;;;;;;5054027;28;20033;-78
2021/04/03 04:35:09;;;;;;;23.05;14.45;;;3.70;96.60;;;;;;5054113;28;20025;-78
2021/04/03 04:37:35;;;;;;;25.13;15.05;;;3.80;96.60;;;;;;5055336;28;20029;-79
2021/04/03 04:40:01;;;;;;;28.48;17.48;;;3.80;96.50;;;;;;5054969;28;20025;-79
2021/04/03 04:42:27;;;;;;;24.73;16.17;;;3.90;96.80;;;;;;5054842;28;20075;-80
2021/04/03 04:44:53;;;;;;;27.45;16.77;;;3.90;96.70;;;;;;5054465;28;20067;-80
2021/04/03 04:47:19;;;;;;;27.15;16.98;;;4.00;96.80;;;;;;5055138;28;20387;-79
2021/04/03 04:49:44;;;;;;;27.25;17.25;;;4.00;96.80;;;;;;5053871;28;20063;-80
2021/04/03 04:52:10;;;;;;;31.17;19.02;;;4.10;96.80;;;;;;5053477;28;20049;-80
2021/04/03 04:54:36;;;;;;;31.55;20.17;;;4.10;96.80;;;;;;5054948;28;20031;-80
2021/04/03 04:57:02;;;;;;;37.55;22.63;;;4.20;96.80;;;;;;5054550;28;20467;-80
2021/04/03 04:59:28;;;;;;;37.33;22.83;;;4.30;96.80;;;;;;5054504;28;20029;-79
2021/04/03 05:01:53;;;;;;;32.65;21.08;;;4.30;96.70;;;;;;5054519;28;20029;-79
2021/04/03 05:04:19;;;;;;;32.40;19.73;;;4.40;96.70;;;;;;5054183;28;20029;-78
2021/04/03 05:06:45;;;;;;;38.40;23.90;;;4.50;96.70;;;;;;5053492;28;20024;-78
2021/04/03 05:09:10;;;;;;;36.80;22.38;;;4.50;96.70;;;;;;5053154;28;20025;-79
2021/04/03 05:11:37;;;;;;;31.00;20.65;;;4.60;96.60;;;;;;5052591;28;20108;-79
2021/04/03 05:14:03;;;;;;;29.77;20.08;;;4.60;96.70;;;;;;5052880;28;20033;-80
2021/04/03 05:16:29;;;;;;;30.52;20.15;;;4.60;96.70;;;;;;5052660;28;20119;-79
2021/04/03 05:18:55;;;;;;;30.40;20.45;;;4.70;96.50;;;;;;5052972;28;20021;-79
2021/04/03 05:21:21;;;;;;;30.63;20.05;;;4.80;96.50;;;;;;5053035;28;20447;-82
2021/04/03 05:23:46;;;;;;;31.65;18.63;;;4.90;96.40;;;;;;5052737;28;20048;-79
2021/04/03 05:26:12;;;;;;;26.73;17.45;;;5.00;96.10;;;;;;5053141;28;20039;-78
2021/04/03 05:28:38;;;;;;;31.45;18.58;;;4.90;96.20;;;;;;5053041;28;20536;-78
2021/04/03 05:31:04;;;;;;;30.13;17.50;;;5.00;96.10;;;;;;5052833;28;20136;-77
2021/04/03 05:33:29;;;;;;;25.60;17.13;;;5.00;95.90;;;;;;5052745;28;20045;-78
2021/04/03 05:35:55;;;;;;;26.58;17.48;;;5.10;95.90;;;;;;5052684;28;20120;-78
2021/04/03 05:38:30;;;;;;;25.83;17.20;;;5.10;96.10;;;;;;5054073;28;20029;-77
2021/04/03 05:40:56;;;;;;;24.55;15.73;;;5.20;95.90;;;;;;5052887;28;20025;-78
2021/04/03 05:43:23;;;;;;;20.67;14.27;;;5.30;95.60;;;;;;5053873;28;20036;-78
2021/04/03 05:45:56;;;;;;;22.85;14.77;;;5.30;95.40;;;;;;5052959;28;20025;-78
2021/04/03 05:48:23;;;;;;;24.42;14.32;;;5.40;95.40;;;;;;5054025;28;20169;-78
2021/04/03 05:50:53;;;;;;;22.35;14.60;;;5.40;95.20;;;;;;5053837;28;20021;-78
2021/04/03 05:53:19;;;;;;;27.67;15.77;;;5.40;95.00;;;;;;5054144;28;20021;-78
2021/04/03 05:55:44;;;;;;;22.40;14.77;;;5.50;95.00;;;;;;5052551;28;20028;-75
2021/04/03 05:58:10;;;;;;;22.15;14.73;;;5.50;95.30;;;;;;5053718;28;20455;-75
2021/04/03 06:00:36;;;;;;;23.13;14.30;;;5.60;95.00;;;;;;5053949;28;20070;-76
2021/04/03 06:03:01;;;;;;;17.92;12.05;;;5.60;94.70;;;;;;5053832;28;20025;-76
2021/04/03 06:05:27;;;;;;;18.80;12.75;;;5.70;94.70;;;;;;5052357;28;20063;-75
2021/04/03 06:07:53;;;;;;;20.08;13.57;;;5.70;94.30;;;;;;5052583;28;20024;-76
2021/04/03 06:10:18;;;;;;;19.83;12.65;;;5.60;93.90;;;;;;5053906;28;20422;-76
2021/04/03 06:12:46;;;;;;;21.35;13.27;;;5.70;94.40;;;;;;5052336;28;20039;-76
2021/04/03 06:15:15;;;;;;;21.95;14.13;;;5.70;93.90;;;;;;5052091;28;20078;-76
2021/04/03 06:17:41;;;;;;;23.15;14.13;;;5.60;93.60;;;;;;5052078;28;20032;-77
2021/04/03 06:20:07;;;;;;;20.58;13.93;;;5.60;94.00;;;;;;5053572;28;20355;-77
2021/04/03 06:22:42;;;;;;;21.15;13.63;;;5.50;93.60;;;;;;5052625;28;20025;-90
2021/04/03 06:25:08;;;;;;;20.23;13.02;;;5.60;94.00;;;;;;5053218;28;20032;-92
2021/04/03 06:27:33;;;;;;;20.38;12.77;;;5.50;93.60;;;;;;5053475;28;20115;-91
2021/04/03 06:30:13;;;;;;;19.77;12.43;;;5.50;93.60;;;;;;5053327;28;20113;-91
2021/04/03 06:32:39;;;;;;;19.30;11.63;;;5.50;93.80;;;;;;5054741;28;20025;-91
2021/04/03 06:35:05;;;;;;;14.15;9.98;;;5.60;93.80;;;;;;5053342;28;20036;-93
2021/04/03 06:37:34;;;;;;;13.93;8.90;;;5.80;93.30;;;;;;5051880;28;20017;-77
2021/04/03 06:40:06;;;;;;;11.45;8.60;;;5.70;92.80;;;;;;5053070;28;20545;-78
2021/04/03 06:42:57;;;;;;;13.45;8.57;;;5.70;92.10;;;;;;5053119;28;20075;-79
2021/04/03 06:45:30;;;;;;;16.65;10.90;;;5.80;92.00;;;;;;5050035;28;20130;-78
2021/04/03 06:48:01;;;;;;;18.77;9.75;;;5.90;92.20;;;;;;5051813;28;20111;-76
2021/04/03 06:50:30;;;;;;;12.95;8.40;;;5.90;91.50;;;;;;5052994;28;20076;-76
2021/04/03 06:52:56;;;;;;;14.05;8.75;;;6.00;91.70;;;;;;5051942;28;20017;-76
2021/04/03 06:55:23;;;;;;;10.77;7.50;;;6.10;91.70;;;;;;5051851;28;20082;-76
2021/04/03 06:57:52;;;;;;;9.27;6.57;;;6.20;91.50;;;;;;5051772;28;20116;-76
2021/04/03 07:00:19;;;;;;;12.68;7.68;;;6.30;91.60;;;;;;5052983;28;20497;-78
2021/04/03 07:02:47;;;;;;;11.43;8.55;;;6.40;90.30;;;;;;5051904;28;20463;-81
2021/04/03 07:05:15;;;;;;;9.68;5.60;;;6.40;90.10;;;;;;5052349;28;20096;-79
2021/04/03 07:07:43;;;;;;;8.65;6.10;;;6.50;90.00;;;;;;5056512;28;20525;-83
2021/04/03 07:10:12;;;;;;;9.40;5.90;;;6.50;89.40;;;;;;5055655;28;20502;-82
2021/04/03 07:12:39;;;;;;;12.60;7.40;;;6.50;90.10;;;;;;5055767;28;20446;-82
2021/04/03 07:15:06;;;;;;;8.25;5.50;;;6.60;88.30;;;;;;5055703;28;20119;-83
2021/04/03 07:17:35;;;;;;;8.02;5.78;;;6.60;88.80;;;;;;5055977;28;20048;-86
2021/04/03 07:20:01;;;;;;;8.65;5.82;;;6.70;88.20;;;;;;5056143;28;20021;-84
2021/04/03 07:22:28;;;;;;;8.68;6.22;;;6.80;88.60;;;;;;5057044;28;20021;-84
2021/04/03 07:24:55;;;;;;;14.07;6.93;;;6.90;89.20;;;;;;5055852;28;20122;-83
2021/04/03 07:27:22;;;;;;;13.90;7.72;;;6.90;85.50;;;;;;5057021;28;20025;-83
2021/04/03 07:29:50;;;;;;;11.80;7.35;;;7.00;84.40;;;;;;5057109;28;20040;-84
2021/04/03 07:32:28;;;;;;;10.40;5.50;;;7.00;84.00;;;;;;5056700;28;20037;-86
2021/04/03 07:34:55;;;;;;;11.38;6.15;;;7.10;84.20;;;;;;5057286;28;20067;-86
2021/04/03 07:37:32;;;;;;;11.05;6.60;;;7.10;86.00;;;;;;5055662;28;20486;-86
2021/04/03 07:39:57;;;;;;;7.72;5.38;;;7.30;84.10;;;;;;5057184;28;20017;-86
2021/04/03 07:42:38;;;;;;;7.18;4.25;;;7.20;84.00;;;;;;5055815;28;20047;-84
2021/04/03 07:45:06;;;;;;;7.93;5.00;;;7.30;82.60;;;;;;5056457;28;20386;-85
2021/04/03 07:47:47;;;;;;;6.20;4.75;;;7.30;83.90;;;;;;5055294;28;20028;-83
2021/04/03 07:50:42;;;;;;;16.05;7.68;;;7.40;82.30;;;;;;5056551;28;20017;-86
2021/04/03 07:53:09;;;;;;;6.80;4.32;;;7.50;82.10;;;;;;5055090;28;20029;-84
2021/04/03 07:55:42;;;;;;;6.10;3.90;;;7.50;81.20;;;;;;5055250;28;20163;-84
2021/04/03 07:58:28;;;;;;;10.35;6.63;;;7.60;82.00;;;;;;5056707;28;20100;-84
2021/04/03 08:00:56;;;;;;;8.40;5.20;;;7.70;82.40;;;;;;5054854;28;20025;-84
2021/04/03 08:03:27;;;;;;;8.50;4.78;;;7.80;81.40;;;;;;5054728;28;20108;-85
2021/04/03 08:06:09;;;;;;;6.85;3.75;;;7.90;82.00;;;;;;5054731;28;20356;-85
2021/04/03 08:08:39;;;;;;;7.35;4.95;;;7.90;79.30;;;;;;5054534;28;20082;-85
2021/04/03 08:11:15;;;;;;;5.65;3.75;;;7.90;80.00;;;;;;5054413;28;20075;-84
2021/04/03 08:13:49;;;;;;;5.18;3.85;;;7.90;78.00;;;;;;5054479;28;20075;-86
2021/04/03 08:16:17;;;;;;;6.07;3.67;;;8.00;77.00;;;;;;5055382;28;20052;-77
2021/04/03 08:18:45;;;;;;;6.47;3.72;;;8.10;79.10;;;;;;5055265;28;20471;-77
2021/04/03 08:21:12;;;;;;;5.25;3.30;;;8.10;76.40;;;;;;5054089;28;20025;-76
2021/04/03 08:23:44;;;;;;;4.57;3.00;;;8.20;76.90;;;;;;5055199;28;20025;-76
2021/04/03 08:26:11;;;;;;;5.50;3.30;;;8.30;77.30;;;;;;5054929;28;20048;-77
2021/04/03 08:28:38;;;;;;;5.10;3.38;;;8.30;74.90;;;;;;5053472;28;20459;-77
2021/04/03 08:31:26;;;;;;;6.72;3.50;;;8.40;76.40;;;;;;5053355;28;20136;-77
2021/04/03 08:33:54;;;;;;;6.25;3.85;;;8.40;74.20;;;;;;5053904;28;20470;-77
2021/04/03 08:36:24;;;;;;;4.13;2.97;;;8.60;75.30;;;;;;5054949;28;20025;-77
2021/04/03 08:38:51;;;;;;;6.30;3.03;;;8.60;72.00;;;;;;5054594;28;20532;-77
2021/04/03 08:41:18;;;;;;;6.05;3.60;;;8.70;71.10;;;;;;5053510;28;20033;-77
2021/04/03 08:43:44;;;;;;;6.47;3.25;;;8.70;71.60;;;;;;5054817;28;20525;-76
2021/04/03 08:46:13;;;;;;;3.78;2.92;;;8.70;71.10;;;;;;5053270;28;20040;-76
2021/04/03 08:48:41;;;;;;;6.13;3.05;;;8.80;70.90;;;;;;5054689;28;20036;-76
2021/04/03 08:51:08;;;;;;;5.03;3.13;;;8.90;71.00;;;;;;5053521;28;20025;-76
2021/04/03 08:53:43;;;;;;;7.28;4.30;;;9.00;70.00;;;;;;5053363;28;20029;-76
2021/04/03 08:56:10;;;;;;;4.13;3.22;;;9.00;67.90;;;;;;5053257;28;20075;-75
2021/04/03 08:58:40;;;;;;;2.65;2.30;;;9.20;70.40;;;;;;5054423;28;20029;-76
2021/04/03 09:01:08;;;;;;;3.63;2.75;;;9.20;67.40;;;;;;5054250;28;20482;-76
2021/04/03 09:03:35;;;;;;;3.00;2.33;;;9.20;66.70;;;;;;5053163;28;20024;-75
2021/04/03 09:06:01;;;;;;;5.68;2.60;;;9.20;64.50;;;;;;5054272;28;20059;-75
2021/04/03 09:08:27;;;;;;;4.80;2.47;;;9.30;66.90;;;;;;5054395;28;20021;-75
2021/04/03 09:10:58;;;;;;;5.72;2.80;;;9.40;65.40;;;;;;5053147;28;20556;-76
2021/04/03 09:13:35;;;;;;;3.25;2.47;;;9.40;64.70;;;;;;5054109;28;20029;-75
2021/04/03 09:16:13;;;;;;;3.85;2.70;;;9.60;63.10;;;;;;5054455;28;20025;-74
2021/04/03 09:18:40;;;;;;;2.50;2.30;;;9.60;61.20;;;;;;5054419;28;20025;-76
2021/04/03 09:21:06;;;;;;;3.00;2.03;;;9.60;62.10;;;;;;5053463;28;20032;-72
2021/04/03 09:23:40;;;;;;;4.70;2.47;;;9.70;63.60;;;;;;5054482;28;20394;-78
2021/04/03 09:26:06;;;;;;;2.58;2.08;;;9.90;66.00;;;;;;5053129;28;20027;-77
2021/04/03 09:28:39;;;;;;;3.78;2.45;;;10.10;63.40;;;;;;5052942;28;20024;-79
2021/04/03 09:31:09;;;;;;;3.65;2.13;;;10.20;62.80;;;;;;5053814;28;20053;-77
2021/04/03 09:33:47;;;;;;;2.75;2.25;;;10.30;61.10;;;;;;5054188;28;20075;-79
2021/04/03 09:36:17;;;;;;;3.22;2.58;;;10.30;60.50;;;;;;5052929;28;20113;-79
2021/04/03 09:38:44;;;;;;;3.22;1.95;;;10.30;60.40;;;;;;5052912;28;20052;-79
2021/04/03 09:41:25;;;;;;;2.40;1.80;;;10.30;58.40;;;;;;5052715;28;20055;-80
2021/04/03 09:43:51;;;;;;;2.10;1.77;;;10.40;58.10;;;;;;5054082;28;20032;-80
2021/04/03 09:46:17;;;;;;;3.55;3.20;;;10.40;59.40;;;;;;5054161;28;20102;-81
2021/04/03 09:48:42;;;;;;;3.72;2.25;;;10.50;60.50;;;;;;5052804;28;20068;-80
2021/04/03 09:51:10;;;;;;;4.28;2.55;;;10.60;58.80;;;;;;5052681;28;20025;-79
2021/04/03 09:53:37;;;;;;;4.05;2.45;;;10.70;57.60;;;;;;5053736;28;20028;-80
2021/04/03 09:56:04;;;;;;;6.30;4.50;;;10.60;54.90;;;;;;5053901;28;20017;-79
2021/04/03 09:58:30;;;;;;;6.35;4.13;;;10.50;56.50;;;;;;5053918;28;20413;-77
2021/04/03 10:00:55;;;;;;;5.43;3.20;;;10.50;56.70;;;;;;5052641;28;20059;-80
2021/04/03 10:03:21;;;;;;;8.07;6.85;;;10.50;56.30;;;;;;5053742;28;20075;-79
2021/04/03 10:05:47;;;;;;;5.75;2.70;;;10.50;57.70;;;;;;5052623;28;20025;-80
2021/04/03 10:08:13;;;;;;;9.07;3.90;;;10.60;58.60;;;;;;5053672;28;20095;-80
2021/04/03 10:10:39;;;;;;;20.42;13.25;;;10.70;58.40;;;;;;5052496;28;20094;-80
2021/04/03 10:13:07;;;;;;;2.78;2.25;;;10.80;59.00;;;;;;5052403;28;20044;-79
2021/04/03 10:15:33;;;;;;;5.25;3.92;;;10.80;55.30;;;;;;5052253;28;20032;-78
2021/04/03 10:17:59;;;;;;;6.80;4.53;;;10.80;55.70;;;;;;5053621;28;20252;-79
2021/04/03 10:20:24;;;;;;;4.53;3.85;;;10.90;56.90;;;;;;5052212;28;20477;-78
2021/04/03 10:22:50;;;;;;;5.97;5.15;;;10.90;56.60;;;;;;5053607;28;20029;-79
2021/04/03 10:25:16;;;;;;;2.30;2.10;;;10.90;54.10;;;;;;5053433;28;20017;-79
2021/04/03 10:27:42;;;;;;;6.60;4.28;;;10.80;53.60;;;;;;5052386;28;20111;-79
2021/04/03 10:30:10;;;;;;;10.57;7.13;;;10.80;53.20;;;;;;5053741;28;20037;-78
2021/04/03 10:32:35;;;;;;;7.22;4.70;;;10.90;52.90;;;;;;5053478;28;20044;-79
2021/04/03 10:35:02;;;;;;;6.18;4.25;;;10.90;53.20;;;;;;5053397;28;20021;-79
2021/04/03 10:37:27;;;;;;;3.15;2.20;;;11.00;53.60;;;;;;5052231;28;20513;-79
2021/04/03 10:39:53;;;;;;;3.05;2.05;;;11.00;52.70;;;;;;5053669;28;20025;-79
2021/04/03 10:42:19;;;;;;;3.63;3.00;;;11.10;54.00;;;;;;5054451;28;20470;-79
2021/04/03 10:44:44;;;;;;;2.35;2.10;;;11.20;53.70;;;;;;5057502;28;20029;-79
2021/04/03 10:47:10;;;;;;;5.85;2.67;;;11.20;50.90;;;;;;5056148;28;20036;-79
2021/04/03 10:49:36;;;;;;;2.75;2.10;;;11.20;52.30;;;;;;5057611;28;20165;-79
2021/04/03 10:52:02;;;;;;;3.88;2.40;;;11.30;51.30;;;;;;5055717;28;20025;-79
2021/04/03 10:54:28;;;;;;;3.05;2.30;;;11.10;51.50;;;;;;5057559;28;20037;-80
2021/04/03 10:56:53;;;;;;;4.00;1.83;;;11.10;52.80;;;;;;5056034;28;20073;-80
2021/04/03 10:59:19;;;;;;;1.65;1.55;;;11.20;52.20;;;;;;5057580;28;20063;-81
2021/04/03 11:01:45;;;;;;;3.17;1.65;;;11.20;52.70;;;;;;5055386;28;20036;-73
2021/04/03 11:04:10;;;;;;;3.47;2.33;;;11.30;53.10;;;;;;5057412;28;20021;-81
2021/04/03 11:06:36;;;;;;;2.35;2.10;;;11.40;50.60;;;;;;5055486;28;20553;-80
2021/04/03 11:09:03;;;;;;;2.92;2.17;;;11.30;52.10;;;;;;5057006;28;20060;-81
2021/04/03 11:11:30;;;;;;;2.63;1.70;;;11.30;51.10;;;;;;5057350;28;20025;-79
2021/04/03 11:13:56;;;;;;;2.90;2.00;;;11.30;50.00;;;;;;5055628;28;20774;-81
2021/04/03 11:16:21;;;;;;;2.40;2.20;;;11.20;49.10;;;;;;5056933;28;20021;-81
2021/04/03 11:18:47;;;;;;;2.70;2.15;;;11.30;50.30;;;;;;5055542;28;20025;-82
2021/04/03 11:21:13;;;;;;;5.50;2.92;;;11.40;51.20;;;;;;5057038;28;20071;-78
2021/04/03 11:23:38;;;;;;;3.75;2.25;;;11.40;49.20;;;;;;5056726;28;20032;-82
2021/04/03 11:26:04;;;;;;;4.63;3.45;;;11.30;49.90;;;;;;5055493;28;20032;-82
2021/04/03 11:28:30;;;;;;;2.70;2.15;;;11.40;49.90;;;;;;5055353;28;20028;-80
2021/04/03 11:30:55;;;;;;;5.45;4.57;;;11.50;51.10;;;;;;5056628;28;20487;-82
2021/04/03 11:33:21;;;;;;;16.35;10.50;;;11.50;49.70;;;;;;5056630;28;20021;-82
2021/04/03 11:35:47;;;;;;;3.55;3.13;;;11.60;49.20;;;;;;5056405;28;20494;-80
2021/04/03 11:38:13;;;;;;;4.65;2.15;;;11.60;47.50;;;;;;5055322;28;20032;-81
2021/04/03 11:40:39;;;;;;;3.90;2.58;;;11.70;47.40;;;;;;5056447;28;20025;-82
2021/04/03 11:43:04;;;;;;;2.50;2.30;;;11.80;47.90;;;;;;5055161;28;20048;-81
2021/04/03 11:45:30;;;;;;;1.88;1.73;;;11.80;47.10;;;;;;5055131;28;20111;-81
2021/04/03 11:47:56;;;;;;;2.03;1.65;;;11.80;47.40;;;;;;5055021;28;20052;-83
2021/04/03 11:50:22;;;;;;;2.88;2.40;;;11.90;47.30;;;;;;5056276;28;20033;-80
2021/04/03 11:52:48;;;;;;;2.40;2.20;;;12.00;47.00;;;;;;5056004;28;20030;-83
2021/04/03 11:55:16;;;;;;;4.15;2.60;;;12.00;48.00;;;;;;5054834;28;20028;-82
2021/04/03 11:57:43;;;;;;;2.65;1.95;;;12.10;46.00;;;;;;5054850;28;20368;-82
2021/04/03 12:00:10;;;;;;;2.28;2.08;;;12.20;46.40;;;;;;5056360;28;20364;-83
2021/04/03 12:02:37;;;;;;;3.63;2.20;;;12.20;46.70;;;;;;5054816;28;20059;-82
2021/04/03 12:05:06;;;;;;;2.03;1.92;;;12.20;46.40;;;;;;5054774;28;20378;-83
2021/04/03 12:07:36;;;;;;;3.92;2.35;;;12.30;46.70;;;;;;5054629;28;20021;-84
2021/04/03 12:10:07;;;;;;;3.55;2.25;;;12.30;46.00;;;;;;5056147;28;20048;-83
2021/04/03 12:12:35;;;;;;;3.67;2.30;;;12.30;46.20;;;;;;5054666;28;20032;-84
2021/04/03 12:15:01;;;;;;;3.08;1.98;;;12.50;46.10;;;;;;5054837;28;20029;-83
2021/04/03 12:17:27;;;;;;;2.95;2.13;;;12.60;45.60;;;;;;5054532;28;20021;-82
2021/04/03 12:19:52;;;;;;;1.73;1.63;;;13.00;46.70;;;;;;5054739;28;20880;-83
2021/04/03 12:22:18;;;;;;;6.32;4.45;;;13.30;46.10;;;;;;5055676;28;20025;-82
2021/04/03 12:24:44;;;;;;;63.58;40.80;;;13.50;45.90;;;;;;5055724;28;20025;-84
2021/04/03 12:27:10;;;;;;;60.47;37.25;;;13.60;44.80;;;;;;5054236;28;20115;-82
2021/04/03 12:29:35;;;;;;;27.95;17.60;;;13.70;44.40;;;;;;5037623;28;20063;-81
2021/04/03 12:32:01;;;;;;;22.23;13.63;;;13.80;44.20;;;;;;5054077;28;20056;-81
2021/04/03 12:34:27;;;;;;;10.02;5.40;;;13.60;42.10;;;;;;5055699;28;20036;-81
2021/04/03 12:36:52;;;;;;;8.15;6.75;;;13.60;42.30;;;;;;5054083;28;20025;-82
2021/04/03 12:39:18;;;;;;;4.80;3.20;;;13.40;43.00;;;;;;5055050;28;20837;-84
2021/04/03 12:41:44;;;;;;;2.42;2.15;;;13.80;43.20;;;;;;5054808;28;20119;-83
2021/04/03 12:44:09;;;;;;;10.27;7.43;;;13.40;42.40;;;;;;5054999;28;20021;-82
2021/04/03 12:46:35;;;;;;;10.63;7.07;;;13.40;43.50;;;;;;5052883;28;20091;-82
2021/04/03 12:49:01;;;;;;;8.50;6.18;;;13.20;43.10;;;;;;5053633;28;20024;-83
2021/04/03 12:51:26;;;;;;;5.57;3.95;;;13.40;44.30;;;;;;5052512;28;20021;-82
2021/04/03 12:53:52;;;;;;;3.25;2.92;;;13.50;43.70;;;;;;5053502;28;20379;-83